sensor_id;sensor_type;location;lat;lon;timestamp;temperature;humidity
42187;DHT22;27858;51.414;0.018;2022-07-03T08:17:34;16.90;1.00
42187;DHT22;27858;51.414;0.018;2022-07-03T08:20:01;16.90;1.00
42187;DHT22;27858;51.414;0.018;2022-07-03T08:22:28;16.90;1.00
42187;DHT22;27858;51.414;0.018;2022-07-03T08:24:54;17.10;1.00
42187;DHT22;27858;51.414;0.018;2022-07-03T08:27:21;17.00;1.00
42187;DHT22;27858;51.414;0.018;2022-07-03T08:29:48;17.20;1.00
42187;DHT22;27858;51.414;0.018;2022-07-03T08:32:15;17.30;1.00
42187;DHT22;27858;51.414;0.018;2022-07-03T08:34:42;17.40;1.00
42187;DHT22;27858;51.414;0.018;2022-07-03T08:37:10;17.40;1.00
42187;DHT22;27858;51.414;0.018;2022-07-03T08:39:37;17.50;1.00
42187;DHT22;27858;51.414;0.018;2022-07-03T08:42:07;17.50;1.00
42187;DHT22;27858;51.414;0.018;2022-07-03T08:44:43;17.30;1.00
42187;DHT22;27858;51.414;0.018;2022-07-03T08:47:12;17.30;1.00
42187;DHT22;27858;51.414;0.018;2022-07-03T08:49:40;17.30;1.00
42187;DHT22;27858;51.414;0.018;2022-07-03T08:52:08;17.30;1.00
42187;DHT22;27858;51.414;0.018;2022-07-03T08:54:38;17.30;1.00
42187;DHT22;27858;51.414;0.018;2022-07-03T08:57:05;17.40;1.00
42187;DHT22;27858;51.414;0.018;2022-07-03T08:59:36;17.50;1.00
42187;DHT22;27858;51.414;0.018;2022-07-03T09:02:05;17.30;1.00
42187;DHT22;27858;51.414;0.018;2022-07-03T09:04:33;17.30;1.00
42187;DHT22;27858;51.414;0.018;2022-07-03T09:07:00;17.30;1.00
42187;DHT22;27858;51.414;0.018;2022-07-03T09:09:28;17.40;1.00
42187;DHT22;27858;51.414;0.018;2022-07-03T09:11:55;17.60;1.00
42187;DHT22;27858;51.414;0.018;2022-07-03T09:14:22;17.70;1.00
42187;DHT22;27858;51.414;0.018;2022-07-03T09:16:49;17.80;1.00
42187;DHT22;27858;51.414;0.018;2022-07-03T09:19:46;17.70;1.00
42187;DHT22;27858;51.414;0.018;2022-07-03T09:22:28;17.70;99.90
42187;DHT22;27858;51.414;0.018;2022-07-03T09:25:07;17.70;99.90
42187;DHT22;27858;51.414;0.018;2022-07-03T09:27:36;17.90;99.90
42187;DHT22;27858;51.414;0.018;2022-07-03T09:30:09;17.80;99.90
42187;DHT22;27858;51.414;0.018;2022-07-03T09:32:46;17.80;99.90
42187;DHT22;27858;51.414;0.018;2022-07-03T09:35:17;18.10;99.90
42187;DHT22;27858;51.414;0.018;2022-07-03T09:37:57;18.10;99.90
42187;DHT22;27858;51.414;0.018;2022-07-03T09:40:46;18.20;99.90
42187;DHT22;27858;51.414;0.018;2022-07-03T09:43:13;18.20;99.90
42187;DHT22;27858;51.414;0.018;2022-07-03T15:47:54;21.40;99.90
42187;DHT22;27858;51.414;0.018;2022-07-03T15:53:28;21.40;99.90
42187;DHT22;27858;51.414;0.018;2022-07-03T15:56:03;21.50;99.90
42187;DHT22;27858;51.414;0.018;2022-07-03T15:58:32;21.50;99.90
42187;DHT22;27858;51.414;0.018;2022-07-03T16:01:03;21.50;99.90
42187;DHT22;27858;51.414;0.018;2022-07-03T16:04:06;21.40;99.90
42187;DHT22;27858;51.414;0.018;2022-07-03T16:06:38;21.40;99.90
42187;DHT22;27858;51.414;0.018;2022-07-03T16:09:08;21.30;99.90
42187;DHT22;27858;51.414;0.018;2022-07-03T16:11:36;21.20;99.90
42187;DHT22;27858;51.414;0.018;2022-07-03T16:14:04;21.10;99.90
42187;DHT22;27858;51.414;0.018;2022-07-03T16:16:32;21.10;99.90
42187;DHT22;27858;51.414;0.018;2022-07-03T16:19:04;21.10;99.90
42187;DHT22;27858;51.414;0.018;2022-07-03T16:21:32;21.30;99.90
42187;DHT22;27858;51.414;0.018;2022-07-03T16:23:59;21.60;99.90
42187;DHT22;27858;51.414;0.018;2022-07-03T16:26:28;21.70;99.90
42187;DHT22;27858;51.414;0.018;2022-07-03T16:28:55;21.90;99.90
42187;DHT22;27858;51.414;0.018;2022-07-03T16:31:27;22.00;99.90
42187;DHT22;27858;51.414;0.018;2022-07-03T16:34:09;22.50;99.90
42187;DHT22;27858;51.414;0.018;2022-07-03T16:36:41;22.50;99.90
42187;DHT22;27858;51.414;0.018;2022-07-03T16:39:16;22.40;99.90
42187;DHT22;27858;51.414;0.018;2022-07-03T16:41:47;22.40;99.90
42187;DHT22;27858;51.414;0.018;2022-07-03T16:44:20;22.20;99.90
42187;DHT22;27858;51.414;0.018;2022-07-03T16:46:58;22.00;99.90
42187;DHT22;27858;51.414;0.018;2022-07-03T16:49:30;21.80;99.90
42187;DHT22;27858;51.414;0.018;2022-07-03T16:52:04;21.80;99.90
42187;DHT22;27858;51.414;0.018;2022-07-03T16:54:32;21.60;99.90
42187;DHT22;27858;51.414;0.018;2022-07-03T16:56:59;21.50;99.90
42187;DHT22;27858;51.414;0.018;2022-07-03T16:59:26;21.30;99.90
42187;DHT22;27858;51.414;0.018;2022-07-03T17:01:53;21.30;99.90
42187;DHT22;27858;51.414;0.018;2022-07-03T17:04:22;21.40;99.90
42187;DHT22;27858;51.414;0.018;2022-07-03T17:06:53;21.30;99.90
42187;DHT22;27858;51.414;0.018;2022-07-03T17:09:21;21.40;99.90
42187;DHT22;27858;51.414;0.018;2022-07-03T17:11:49;21.50;99.90
42187;DHT22;27858;51.414;0.018;2022-07-03T17:14:16;21.50;99.90
42187;DHT22;27858;51.414;0.018;2022-07-03T17:16:59;21.50;99.90
42187;DHT22;27858;51.414;0.018;2022-07-03T17:19:31;21.60;99.90
42187;DHT22;27858;51.414;0.018;2022-07-03T17:22:00;21.70;99.90
42187;DHT22;27858;51.414;0.018;2022-07-03T17:24:52;21.80;99.90
42187;DHT22;27858;51.414;0.018;2022-07-03T17:27:24;21.80;99.90
42187;DHT22;27858;51.414;0.018;2022-07-03T17:30:04;21.90;99.90
42187;DHT22;27858;51.414;0.018;2022-07-03T17:32:40;21.90;99.90
42187;DHT22;27858;51.414;0.018;2022-07-03T17:35:27;21.90;99.90
42187;DHT22;27858;51.414;0.018;2022-07-03T17:38:01;22.00;99.90
42187;DHT22;27858;51.414;0.018;2022-07-03T17:40:52;22.30;99.90
42187;DHT22;27858;51.414;0.018;2022-07-03T17:43:21;22.00;99.90
42187;DHT22;27858;51.414;0.018;2022-07-03T17:45:49;21.70;99.90
42187;DHT22;27858;51.414;0.018;2022-07-03T17:48:16;21.60;99.90
42187;DHT22;27858;51.414;0.018;2022-07-03T17:50:44;21.70;99.90
42187;DHT22;27858;51.414;0.018;2022-07-03T17:53:16;21.90;99.90
42187;DHT22;27858;51.414;0.018;2022-07-03T17:55:45;22.00;99.90
42187;DHT22;27858;51.414;0.018;2022-07-03T17:58:14;22.60;99.90
42187;DHT22;27858;51.414;0.018;2022-07-03T18:00:41;23.10;99.90
42187;DHT22;27858;51.414;0.018;2022-07-03T18:03:11;23.70;99.90
42187;DHT22;27858;51.414;0.018;2022-07-03T18:05:51;24.20;99.90
42187;DHT22;27858;51.414;0.018;2022-07-03T18:14:19;24.10;99.90
42187;DHT22;27858;51.414;0.018;2022-07-03T18:49:05;21.50;99.90
42187;DHT22;27858;51.414;0.018;2022-07-03T18:51:42;21.50;99.90
42187;DHT22;27858;51.414;0.018;2022-07-03T18:56:58;21.30;99.90
42187;DHT22;27858;51.414;0.018;2022-07-03T19:02:27;21.10;99.90
42187;DHT22;27858;51.414;0.018;2022-07-03T19:05:04;21.10;99.90
42187;DHT22;27858;51.414;0.018;2022-07-03T19:07:59;20.90;99.90
42187;DHT22;27858;51.414;0.018;2022-07-03T19:10:29;21.00;99.90
42187;DHT22;27858;51.414;0.018;2022-07-03T19:13:07;20.90;99.90
42187;DHT22;27858;51.414;0.018;2022-07-03T19:15:42;20.70;99.90
42187;DHT22;27858;51.414;0.018;2022-07-03T19:18:12;20.60;99.90
42187;DHT22;27858;51.414;0.018;2022-07-03T19:20:39;20.50;99.90
42187;DHT22;27858;51.414;0.018;2022-07-03T19:23:06;20.40;99.90
42187;DHT22;27858;51.414;0.018;2022-07-03T19:25:33;20.40;99.90
42187;DHT22;27858;51.414;0.018;2022-07-03T19:28:02;20.40;99.90
42187;DHT22;27858;51.414;0.018;2022-07-03T19:30:29;20.30;99.90
42187;DHT22;27858;51.414;0.018;2022-07-03T19:32:58;20.20;99.90
42187;DHT22;27858;51.414;0.018;2022-07-03T19:35:24;20.20;99.90
42187;DHT22;27858;51.414;0.018;2022-07-03T19:37:52;20.20;99.90
42187;DHT22;27858;51.414;0.018;2022-07-03T19:40:21;20.10;99.90
42187;DHT22;27858;51.414;0.018;2022-07-03T19:42:49;20.10;99.90
42187;DHT22;27858;51.414;0.018;2022-07-03T19:45:19;20.00;99.90
42187;DHT22;27858;51.414;0.018;2022-07-03T19:47:54;19.90;99.90
42187;DHT22;27858;51.414;0.018;2022-07-03T19:50:21;19.90;99.90
42187;DHT22;27858;51.414;0.018;2022-07-03T19:52:48;19.80;99.90
42187;DHT22;27858;51.414;0.018;2022-07-03T19:55:17;19.80;99.90
42187;DHT22;27858;51.414;0.018;2022-07-03T19:57:44;19.70;99.90
42187;DHT22;27858;51.414;0.018;2022-07-03T20:00:12;19.70;99.90
42187;DHT22;27858;51.414;0.018;2022-07-03T20:02:39;19.60;99.90
42187;DHT22;27858;51.414;0.018;2022-07-03T20:05:07;19.60;99.90
42187;DHT22;27858;51.414;0.018;2022-07-03T20:07:36;19.50;99.90
42187;DHT22;27858;51.414;0.018;2022-07-03T20:10:07;19.50;99.90
42187;DHT22;27858;51.414;0.018;2022-07-03T20:12:35;19.40;99.90
42187;DHT22;27858;51.414;0.018;2022-07-03T20:15:03;19.40;99.90
42187;DHT22;27858;51.414;0.018;2022-07-03T20:17:31;19.30;99.90
42187;DHT22;27858;51.414;0.018;2022-07-03T20:20:07;19.20;99.90
42187;DHT22;27858;51.414;0.018;2022-07-03T20:22:38;19.20;99.90
42187;DHT22;27858;51.414;0.018;2022-07-03T20:25:08;19.20;99.90
42187;DHT22;27858;51.414;0.018;2022-07-03T20:27:36;19.10;99.90
42187;DHT22;27858;51.414;0.018;2022-07-03T20:30:04;19.10;99.90
42187;DHT22;27858;51.414;0.018;2022-07-03T20:32:31;19.10;99.90
42187;DHT22;27858;51.414;0.018;2022-07-03T20:35:03;19.10;99.90
42187;DHT22;27858;51.414;0.018;2022-07-03T20:37:33;19.00;99.90
42187;DHT22;27858;51.414;0.018;2022-07-03T20:40:02;19.00;99.90
42187;DHT22;27858;51.414;0.018;2022-07-03T20:42:29;19.00;99.90
42187;DHT22;27858;51.414;0.018;2022-07-03T20:44:56;18.90;99.90
42187;DHT22;27858;51.414;0.018;2022-07-03T20:47:34;18.90;99.90
42187;DHT22;27858;51.414;0.018;2022-07-03T20:50:01;18.90;99.90
42187;DHT22;27858;51.414;0.018;2022-07-03T20:52:28;18.90;99.90
42187;DHT22;27858;51.414;0.018;2022-07-03T20:54:55;18.90;99.90
42187;DHT22;27858;51.414;0.018;2022-07-03T20:57:22;18.90;99.90
42187;DHT22;27858;51.414;0.018;2022-07-03T20:59:49;18.90;99.90
42187;DHT22;27858;51.414;0.018;2022-07-03T21:02:16;18.90;99.90
42187;DHT22;27858;51.414;0.018;2022-07-03T21:04:43;18.90;99.90
42187;DHT22;27858;51.414;0.018;2022-07-03T21:07:10;18.90;99.90
42187;DHT22;27858;51.414;0.018;2022-07-03T21:09:37;18.90;99.90
42187;DHT22;27858;51.414;0.018;2022-07-03T21:12:04;18.90;99.90
42187;DHT22;27858;51.414;0.018;2022-07-03T21:14:31;19.00;99.90
42187;DHT22;27858;51.414;0.018;2022-07-03T21:17:13;19.00;99.90
42187;DHT22;27858;51.414;0.018;2022-07-03T21:19:40;19.00;99.90
42187;DHT22;27858;51.414;0.018;2022-07-03T21:22:06;19.00;99.90
42187;DHT22;27858;51.414;0.018;2022-07-03T21:24:33;19.00;99.90
42187;DHT22;27858;51.414;0.018;2022-07-03T21:27:17;19.00;99.90
42187;DHT22;27858;51.414;0.018;2022-07-03T21:29:44;19.00;99.90
42187;DHT22;27858;51.414;0.018;2022-07-03T21:32:12;19.00;99.90
42187;DHT22;27858;51.414;0.018;2022-07-03T21:34:40;19.00;99.90
42187;DHT22;27858;51.414;0.018;2022-07-03T21:37:07;19.00;99.90
42187;DHT22;27858;51.414;0.018;2022-07-03T21:39:34;19.00;99.90
42187;DHT22;27858;51.414;0.018;2022-07-03T21:42:03;19.00;99.90
42187;DHT22;27858;51.414;0.018;2022-07-03T21:44:30;19.00;99.90
42187;DHT22;27858;51.414;0.018;2022-07-03T21:46:56;19.00;99.90
42187;DHT22;27858;51.414;0.018;2022-07-03T21:49:24;19.00;99.90
42187;DHT22;27858;51.414;0.018;2022-07-03T21:51:51;19.00;99.90
42187;DHT22;27858;51.414;0.018;2022-07-03T21:54:18;19.00;99.90
42187;DHT22;27858;51.414;0.018;2022-07-03T21:56:46;19.00;99.90
42187;DHT22;27858;51.414;0.018;2022-07-03T21:59:16;19.00;99.90
42187;DHT22;27858;51.414;0.018;2022-07-03T22:01:47;18.90;99.90
42187;DHT22;27858;51.414;0.018;2022-07-03T22:04:17;19.00;99.90
42187;DHT22;27858;51.414;0.018;2022-07-03T22:06:46;18.90;99.90
42187;DHT22;27858;51.414;0.018;2022-07-03T22:09:13;18.90;99.90
42187;DHT22;27858;51.414;0.018;2022-07-03T22:11:58;18.90;99.90
42187;DHT22;27858;51.414;0.018;2022-07-03T22:14:44;18.80;99.90
42187;DHT22;27858;51.414;0.018;2022-07-03T22:17:11;18.80;99.90
42187;DHT22;27858;51.414;0.018;2022-07-03T22:19:38;18.70;99.90
42187;DHT22;27858;51.414;0.018;2022-07-03T22:22:05;18.70;99.90
42187;DHT22;27858;51.414;0.018;2022-07-03T22:24:32;18.60;99.90
42187;DHT22;27858;51.414;0.018;2022-07-03T22:27:00;18.50;99.90
42187;DHT22;27858;51.414;0.018;2022-07-03T22:29:28;18.40;99.90
42187;DHT22;27858;51.414;0.018;2022-07-03T22:31:54;18.30;99.90
42187;DHT22;27858;51.414;0.018;2022-07-03T22:34:22;18.20;99.90
42187;DHT22;27858;51.414;0.018;2022-07-03T22:36:55;18.10;99.90
42187;DHT22;27858;51.414;0.018;2022-07-03T22:39:23;18.10;99.90
42187;DHT22;27858;51.414;0.018;2022-07-03T22:41:54;18.10;99.90
42187;DHT22;27858;51.414;0.018;2022-07-03T22:44:22;18.10;99.90
42187;DHT22;27858;51.414;0.018;2022-07-03T22:46:50;18.10;99.90
42187;DHT22;27858;51.414;0.018;2022-07-03T22:49:17;18.10;99.90
42187;DHT22;27858;51.414;0.018;2022-07-03T22:51:44;18.00;99.90
42187;DHT22;27858;51.414;0.018;2022-07-03T22:54:12;18.00;99.90
42187;DHT22;27858;51.414;0.018;2022-07-03T22:56:39;18.00;99.90
42187;DHT22;27858;51.414;0.018;2022-07-03T22:59:06;18.00;99.90
42187;DHT22;27858;51.414;0.018;2022-07-03T23:01:35;18.00;99.90
42187;DHT22;27858;51.414;0.018;2022-07-03T23:04:05;18.00;99.90
42187;DHT22;27858;51.414;0.018;2022-07-03T23:06:32;17.90;99.90
42187;DHT22;27858;51.414;0.018;2022-07-03T23:09:00;17.90;99.90
42187;DHT22;27858;51.414;0.018;2022-07-03T23:11:27;17.90;99.90
42187;DHT22;27858;51.414;0.018;2022-07-03T23:13:54;17.90;99.90
42187;DHT22;27858;51.414;0.018;2022-07-03T23:16:20;17.90;99.90
42187;DHT22;27858;51.414;0.018;2022-07-03T23:18:47;17.90;99.90
42187;DHT22;27858;51.414;0.018;2022-07-03T23:21:15;17.90;99.90
42187;DHT22;27858;51.414;0.018;2022-07-03T23:23:42;17.90;99.90
42187;DHT22;27858;51.414;0.018;2022-07-03T23:26:10;17.90;99.90
42187;DHT22;27858;51.414;0.018;2022-07-03T23:28:37;17.90;99.90
42187;DHT22;27858;51.414;0.018;2022-07-03T23:31:04;17.90;99.90
42187;DHT22;27858;51.414;0.018;2022-07-03T23:33:32;17.90;99.90
42187;DHT22;27858;51.414;0.018;2022-07-03T23:36:00;17.90;99.90
42187;DHT22;27858;51.414;0.018;2022-07-03T23:38:29;17.80;99.90
42187;DHT22;27858;51.414;0.018;2022-07-03T23:40:56;17.70;99.90
42187;DHT22;27858;51.414;0.018;2022-07-03T23:43:23;17.70;99.90
42187;DHT22;27858;51.414;0.018;2022-07-03T23:45:50;17.60;99.90
42187;DHT22;27858;51.414;0.018;2022-07-03T23:48:16;17.50;99.90
42187;DHT22;27858;51.414;0.018;2022-07-03T23:51:02;17.40;99.90
42187;DHT22;27858;51.414;0.018;2022-07-03T23:53:29;17.40;99.90
42187;DHT22;27858;51.414;0.018;2022-07-03T23:55:56;17.30;99.90
42187;DHT22;27858;51.414;0.018;2022-07-03T23:58:23;17.30;99.90
